createdAt,value
2024-02-10T00:01:19.530Z,98038.78
2024-02-10T00:03:47.074Z,98028.16
2024-02-10T00:06:16.948Z,98025.03
2024-02-10T00:08:45.247Z,98025.94
2024-02-10T00:11:12.934Z,98038.44
2024-02-10T00:13:41.297Z,98033.66
2024-02-10T00:16:08.511Z,98040.47
2024-02-10T00:18:38.905Z,98039.63
2024-02-10T00:21:05.932Z,98035.34
2024-02-10T00:23:32.467Z,98047.41
2024-02-10T00:25:59.258Z,98039.63
2024-02-10T00:28:26.467Z,98041.53
2024-02-10T00:30:56.155Z,98039.69
2024-02-10T00:33:23.033Z,98039.97
2024-02-10T00:35:49.725Z,98039.03
2024-02-10T00:38:19.139Z,98039.03
2024-02-10T00:40:45.665Z,98034.78
2024-02-10T00:43:14.139Z,98037.19
2024-02-10T00:45:41.387Z,98032.69
2024-02-10T00:48:08.751Z,98038.84
2024-02-10T00:50:35.390Z,98033.25
2024-02-10T00:53:04.064Z,98031.69
2024-02-10T00:55:32.474Z,98023.72
2024-02-10T00:58:03.672Z,98027.94
2024-02-10T01:00:31.929Z,98027.03
2024-02-10T01:02:59.215Z,98022.63
2024-02-10T01:05:26.224Z,98017.16
2024-02-10T01:07:53.232Z,98020.78
2024-02-10T01:10:21.564Z,98018.34
2024-02-10T01:12:48.905Z,98011.97
2024-02-10T01:15:18.076Z,98006.00
2024-02-10T01:17:47.766Z,97995.75
2024-02-10T01:20:18.198Z,98000.66
2024-02-10T01:22:46.612Z,97993.81
2024-02-10T01:25:13.896Z,98002.16
2024-02-10T01:27:43.455Z,97992.75
2024-02-10T01:30:10.391Z,97996.31
2024-02-10T01:32:37.749Z,98001.38
2024-02-10T01:35:05.032Z,98003.25
2024-02-10T01:37:31.987Z,97983.19
2024-02-10T01:39:58.784Z,97997.75
2024-02-10T01:42:39.148Z,97982.88
2024-02-10T01:45:13.138Z,98000.47
2024-02-10T01:47:44.747Z,97993.88
2024-02-10T01:50:13.195Z,97992.88
2024-02-10T01:52:41.218Z,97990.97
2024-02-10T01:55:10.900Z,97992.88
2024-02-10T01:57:38.348Z,97995.56
2024-02-10T02:00:06.469Z,97986.34
2024-02-10T02:02:34.391Z,97985.63
2024-02-10T02:05:07.221Z,97994.00
2024-02-10T02:07:34.026Z,97995.44
2024-02-10T02:10:02.247Z,97982.53
2024-02-10T02:12:29.734Z,97978.94
2024-02-10T02:14:58.531Z,97971.25
2024-02-10T02:17:25.655Z,97966.69
2024-02-10T02:19:52.840Z,97974.34
2024-02-10T02:22:19.976Z,97967.59
2024-02-10T02:24:48.123Z,97961.72
2024-02-10T02:27:14.905Z,97964.50
2024-02-10T02:29:41.425Z,97957.75
2024-02-10T02:32:10.148Z,97956.78
2024-02-10T02:34:37.160Z,97953.97
2024-02-10T02:37:08.572Z,97947.22
2024-02-10T02:39:37.327Z,97947.22
2024-02-10T02:42:06.820Z,97948.06
2024-02-10T02:44:33.818Z,97948.84
2024-02-10T02:47:06.147Z,97941.00
2024-02-10T02:49:33.506Z,97942.94
2024-02-10T02:52:00.086Z,97946.53
2024-02-10T02:54:26.696Z,97946.44
2024-02-10T02:56:56.197Z,97939.69
2024-02-10T02:59:22.760Z,97940.34
2024-02-10T03:01:52.978Z,97940.22
2024-02-10T03:04:20.288Z,97942.19
2024-02-10T03:06:47.073Z,97936.06
2024-02-10T03:09:14.235Z,97942.38
2024-02-10T03:11:40.890Z,97940.34
2024-02-10T03:14:08.320Z,97943.34
2024-02-10T03:16:34.937Z,97938.91
2024-02-10T03:19:03.169Z,97935.59
2024-02-10T03:21:29.816Z,97933.84
2024-02-10T03:24:04.188Z,97940.59
2024-02-10T03:26:32.400Z,97930.84
2024-02-10T03:28:59.895Z,97943.63
2024-02-10T03:31:26.516Z,97942.78
2024-02-10T03:33:53.243Z,97945.16
2024-02-10T03:36:19.902Z,97951.22
2024-02-10T03:38:46.597Z,97958.47
2024-02-10T03:41:14.863Z,97947.53
2024-02-10T03:43:41.469Z,97955.16
2024-02-10T03:46:08.044Z,97945.41
2024-02-10T03:48:34.704Z,97950.06
2024-02-10T03:51:01.244Z,97946.03
2024-02-10T03:53:27.852Z,97957.31
2024-02-10T03:55:58.158Z,97959.94
2024-02-10T03:58:26.416Z,97965.91
2024-02-10T04:00:53.097Z,97967.84
2024-02-10T04:03:20.907Z,97953.97
2024-02-10T04:05:47.928Z,97966.50
2024-02-10T04:08:15.930Z,97946.47
2024-02-10T04:10:42.606Z,97948.69
2024-02-10T04:13:10.394Z,97954.78
2024-02-10T04:15:37.244Z,97955.31
2024-02-10T04:18:07.018Z,97953.75
2024-02-10T04:20:33.713Z,97950.03
2024-02-10T04:23:01.024Z,97948.94
2024-02-10T04:25:32.575Z,97943.44
2024-02-10T04:28:03.994Z,97945.78
2024-02-10T04:30:31.436Z,97950.63
2024-02-10T04:32:58.112Z,97942.31
2024-02-10T04:35:26.569Z,97935.56
2024-02-10T04:37:54.984Z,97933.81
2024-02-10T04:40:26.374Z,97934.00
2024-02-10T04:42:54.900Z,97934.75
2024-02-10T04:45:29.348Z,97928.09
2024-02-10T04:47:56.066Z,97921.59
2024-02-10T04:50:22.710Z,97926.22
2024-02-10T04:52:49.506Z,97909.16
2024-02-10T04:55:22.092Z,97903.25
2024-02-10T04:57:49.409Z,97903.41
2024-02-10T05:00:17.183Z,97907.59
2024-02-10T05:02:45.618Z,97905.09
2024-02-10T05:05:13.252Z,97899.97
2024-02-10T05:07:48.292Z,97910.94
2024-02-10T05:10:21.708Z,97917.97
2024-02-10T05:12:49.804Z,97916.72
2024-02-10T05:15:24.474Z,97912.25
2024-02-10T05:17:52.372Z,97895.16
2024-02-10T05:20:28.655Z,97899.31
2024-02-10T05:22:59.819Z,97895.63
2024-02-10T05:25:36.968Z,97891.53
2024-02-10T05:28:04.225Z,97876.19
2024-02-10T05:30:30.912Z,97883.81
2024-02-10T05:33:00.707Z,97878.66
2024-02-10T05:35:27.865Z,97896.91
2024-02-10T05:37:56.581Z,97906.59
2024-02-10T05:40:27.122Z,97904.09
2024-02-10T05:42:57.909Z,97902.78
2024-02-10T05:45:24.579Z,97896.00
2024-02-10T05:47:52.774Z,97898.63
2024-02-10T05:50:24.126Z,97889.31
2024-02-10T05:52:53.179Z,97879.38
2024-02-10T05:55:27.629Z,97889.81
2024-02-10T05:58:07.630Z,97887.06
2024-02-10T06:00:34.471Z,97904.22
2024-02-10T06:03:04.041Z,97916.78
2024-02-10T06:05:31.560Z,97911.09
2024-02-10T06:07:58.982Z,97917.03
2024-02-10T06:10:25.915Z,97919.03
2024-02-10T06:12:53.853Z,97916.06
2024-02-10T06:15:21.226Z,97905.81
2024-02-10T06:17:56.483Z,97910.22
2024-02-10T06:20:24.712Z,97909.91
2024-02-10T06:22:54.504Z,97909.53
2024-02-10T06:25:26.597Z,97904.44
2024-02-10T06:27:58.429Z,97905.25
2024-02-10T06:30:34.889Z,97900.09
2024-02-10T06:33:05.054Z,97910.69
2024-02-10T06:35:31.772Z,97913.50
2024-02-10T06:37:58.742Z,97922.50
2024-02-10T06:40:25.503Z,97933.97
2024-02-10T06:42:54.466Z,97930.56
2024-02-10T06:45:26.318Z,97939.53
2024-02-10T06:47:53.527Z,97937.97
2024-02-10T06:50:26.140Z,97944.25
2024-02-10T06:52:54.049Z,97936.81
2024-02-10T06:55:21.308Z,97934.72
2024-02-10T06:57:49.685Z,97941.56
2024-02-10T07:00:17.561Z,97948.66
2024-02-10T07:02:47.687Z,97947.28
2024-02-10T07:05:17.063Z,97949.41
2024-02-10T07:07:45.200Z,97949.41
2024-02-10T07:10:16.633Z,97963.50
2024-02-10T07:12:44.470Z,97961.94
2024-02-10T07:15:15.782Z,97968.50
2024-02-10T07:17:47.722Z,97972.63
2024-02-10T07:20:20.182Z,97974.91
2024-02-10T07:22:59.443Z,97972.75
2024-02-10T07:25:30.027Z,97971.88
2024-02-10T07:28:02.047Z,97974.13
2024-02-10T07:30:33.600Z,97982.25
2024-02-10T07:33:13.746Z,97977.59
2024-02-10T07:35:42.039Z,97981.84
2024-02-10T07:38:09.971Z,97988.88
2024-02-10T07:40:37.174Z,97980.47
2024-02-10T07:43:05.655Z,97981.06
2024-02-10T07:45:32.376Z,97979.03
2024-02-10T07:48:02.189Z,97989.22
2024-02-10T07:50:28.857Z,97993.19
2024-02-10T07:52:55.458Z,97980.31
2024-02-10T07:55:22.333Z,97986.41
2024-02-10T07:57:49.687Z,97989.81
2024-02-10T08:00:19.895Z,97985.19
2024-02-10T08:02:46.482Z,97986.41
2024-02-10T08:05:16.758Z,97976.66
2024-02-10T08:07:43.706Z,97980.28
2024-02-10T08:10:10.389Z,97971.13
2024-02-10T08:12:37.144Z,97977.84
2024-02-10T08:15:04.357Z,97965.56
2024-02-10T08:17:32.789Z,97973.84
2024-02-10T08:20:01.065Z,97962.91
2024-02-10T08:22:29.073Z,97968.69
2024-02-10T08:24:57.451Z,97960.41
2024-02-10T08:27:27.210Z,97966.31
2024-02-10T08:29:54.785Z,97961.03
2024-02-10T08:32:21.725Z,97965.28
2024-02-10T08:34:49.125Z,97959.78
2024-02-10T08:37:16.077Z,97972.34
2024-02-10T08:39:47.011Z,97973.72
2024-02-10T08:42:14.274Z,97978.81
2024-02-10T08:44:41.502Z,97981.03
2024-02-10T08:47:08.401Z,97975.19
2024-02-10T08:49:39.466Z,97984.94
2024-02-10T08:52:15.360Z,97974.97
2024-02-10T08:54:44.325Z,97980.00
2024-02-10T08:57:11.285Z,97985.78
2024-02-10T08:59:43.054Z,97984.28
2024-02-10T09:02:10.022Z,97981.78
2024-02-10T09:04:40.232Z,97981.38
2024-02-10T09:07:10.305Z,97974.50
2024-02-10T09:09:37.392Z,97985.94
2024-02-10T09:12:04.450Z,97982.59
2024-02-10T09:14:31.356Z,97974.41
2024-02-10T09:16:58.331Z,97971.88
2024-02-10T09:19:25.185Z,97961.69
2024-02-10T09:21:56.704Z,97973.63
2024-02-10T09:24:25.258Z,97983.63
2024-02-10T09:26:53.455Z,97984.13
2024-02-10T09:29:20.377Z,97976.06
2024-02-10T09:31:47.818Z,97980.44
2024-02-10T09:34:14.552Z,97987.44
2024-02-10T09:36:43.991Z,97981.28
2024-02-10T09:39:12.997Z,97979.75
2024-02-10T09:41:40.800Z,97975.41
2024-02-10T09:44:11.245Z,97982.66
2024-02-10T09:46:38.758Z,97990.69
2024-02-10T09:49:09.070Z,97988.50
2024-02-10T09:51:38.913Z,97987.28
2024-02-10T09:54:06.905Z,97985.53
2024-02-10T09:56:37.263Z,97980.34
2024-02-10T09:59:06.651Z,97980.78
2024-02-10T10:01:38.994Z,97985.06
2024-02-10T10:04:11.359Z,97982.28
2024-02-10T10:06:44.483Z,97983.25
2024-02-10T10:09:14.019Z,97990.00
2024-02-10T10:11:42.253Z,97981.50
2024-02-10T10:14:09.677Z,97982.50
2024-02-10T10:16:37.017Z,97978.19
2024-02-10T10:19:04.002Z,97967.84
2024-02-10T10:21:34.091Z,97982.78
2024-02-10T10:24:01.907Z,97966.09
2024-02-10T10:26:28.598Z,97988.63
2024-02-10T10:28:56.407Z,97976.69
2024-02-10T10:31:23.969Z,97971.44
2024-02-10T10:33:51.646Z,97962.44
2024-02-10T10:36:18.572Z,97979.22
2024-02-10T10:38:48.311Z,97970.22
2024-02-10T10:41:20.574Z,97977.69
2024-02-10T10:43:47.906Z,97953.88
2024-02-10T10:46:18.305Z,97957.88
2024-02-10T10:48:46.093Z,97959.50
2024-02-10T10:51:14.620Z,97959.41
2024-02-10T10:53:42.596Z,97959.78
2024-02-10T10:56:12.262Z,97940.66
2024-02-10T10:58:48.552Z,97952.50
2024-02-10T11:01:22.050Z,97939.31
2024-02-10T11:03:49.446Z,97936.66
2024-02-10T11:06:21.093Z,97937.94
2024-02-10T11:08:54.270Z,97932.53
2024-02-10T11:11:20.876Z,97939.88
2024-02-10T11:13:47.501Z,97941.44
2024-02-10T11:16:15.580Z,97931.84
2024-02-10T11:19:01.588Z,97930.13
2024-02-10T11:21:31.485Z,97923.72
2024-02-10T11:24:01.553Z,97938.84
2024-02-10T11:26:30.027Z,97928.28
2024-02-10T11:29:06.382Z,97919.50
2024-02-10T11:31:43.317Z,97915.75
2024-02-10T11:34:19.402Z,97923.59
2024-02-10T11:36:53.529Z,97924.00
2024-02-10T11:39:23.134Z,97934.19
2024-02-10T11:41:54.124Z,97935.47
2024-02-10T11:44:20.631Z,97933.88
2024-02-10T11:46:47.284Z,97939.34
2024-02-10T11:49:14.003Z,97944.78
2024-02-10T11:51:40.563Z,97932.22
2024-02-10T11:54:07.326Z,97936.41
2024-02-10T11:56:36.502Z,97925.28
2024-02-10T11:59:07.238Z,97926.22
2024-02-10T12:01:34.771Z,97930.09
2024-02-10T12:04:07.604Z,97927.16
2024-02-10T12:06:38.036Z,97934.31
2024-02-10T12:09:10.669Z,97945.09
2024-02-10T12:11:37.432Z,97940.59
2024-02-10T12:14:04.214Z,97942.38
2024-02-10T12:16:35.225Z,97944.78
2024-02-10T12:19:02.622Z,97938.09
2024-02-10T12:21:32.596Z,97939.00
2024-02-10T12:24:01.123Z,97937.66
2024-02-10T12:26:29.491Z,97939.75
2024-02-10T12:28:56.282Z,97934.09
2024-02-10T12:31:22.952Z,97932.59
2024-02-10T12:33:51.903Z,97924.88
2024-02-10T12:36:21.598Z,97923.50
2024-02-10T12:38:48.585Z,97921.72
2024-02-10T12:41:17.798Z,97914.56
2024-02-10T12:43:45.210Z,97913.34
2024-02-10T12:46:12.973Z,97914.56
2024-02-10T12:48:40.117Z,97908.19
2024-02-10T12:51:08.232Z,97899.06
2024-02-10T12:53:35.618Z,97917.19
2024-02-10T12:56:05.650Z,97901.28
2024-02-10T12:58:32.538Z,97899.38
2024-02-10T13:00:59.287Z,97913.94
2024-02-10T13:03:26.737Z,97902.31
2024-02-10T13:05:53.360Z,97895.38
2024-02-10T13:08:20.148Z,97901.31
2024-02-10T13:10:47.976Z,97895.69
2024-02-10T13:13:14.783Z,97886.47
2024-02-10T13:15:44.725Z,97890.44
2024-02-10T13:18:14.494Z,97896.22
2024-02-10T13:20:41.386Z,97896.69
2024-02-10T13:23:08.020Z,97889.47
2024-02-10T13:25:34.614Z,97889.94
2024-02-10T13:28:01.253Z,97881.53
2024-02-10T13:30:27.803Z,97892.09
2024-02-10T13:32:58.029Z,97884.78
2024-02-10T13:35:27.881Z,97889.75
2024-02-10T13:38:13.610Z,97896.56
2024-02-10T13:40:58.548Z,97892.66
2024-02-10T13:43:44.357Z,97890.03
2024-02-10T13:46:30.003Z,97898.63
2024-02-10T13:49:15.230Z,97894.44
2024-02-10T13:52:00.391Z,97895.28
2024-02-10T13:54:45.393Z,97896.56
2024-02-10T13:57:30.526Z,97892.66
2024-02-10T13:59:56.987Z,97886.81
2024-02-10T14:02:23.492Z,97882.31
2024-02-10T14:04:50.195Z,97893.84
2024-02-10T14:07:30.701Z,97881.28
2024-02-10T14:10:10.508Z,97906.97
2024-02-10T14:12:40.478Z,97910.59
2024-02-10T14:15:17.595Z,97903.38
2024-02-10T14:17:50.570Z,97898.66
2024-02-10T14:20:20.483Z,97894.69
2024-02-10T14:22:48.685Z,97888.94
2024-02-10T14:25:25.245Z,97890.91
2024-02-10T14:27:57.815Z,97889.09
2024-02-10T14:30:32.854Z,97887.31
2024-02-10T14:33:01.227Z,97895.31
2024-02-10T14:35:45.813Z,97892.78
2024-02-10T14:38:25.067Z,97892.69
2024-02-10T14:40:53.101Z,97890.69
2024-02-10T14:43:20.628Z,97895.78
2024-02-10T14:45:48.030Z,97895.50
2024-02-10T14:48:17.782Z,97894.56
2024-02-10T14:50:44.751Z,97898.13
2024-02-10T14:53:12.039Z,97887.53
2024-02-10T14:55:39.627Z,97891.47
2024-02-10T14:58:09.387Z,97894.09
2024-02-10T15:00:37.290Z,97898.41
2024-02-10T15:03:10.264Z,97900.03
2024-02-10T15:05:39.541Z,97904.66
2024-02-10T15:08:06.930Z,97901.94
2024-02-10T15:10:33.714Z,97902.34
2024-02-10T15:13:04.049Z,97899.34
2024-02-10T15:15:34.669Z,97889.97
2024-02-10T15:18:02.985Z,97891.47
2024-02-10T15:20:29.767Z,97890.16
2024-02-10T15:22:56.574Z,97899.00
2024-02-10T15:25:23.335Z,97895.66
2024-02-10T15:27:50.511Z,97891.56
2024-02-10T15:30:17.261Z,97896.78
2024-02-10T15:32:47.641Z,97903.56
2024-02-10T15:35:15.320Z,97905.13
2024-02-10T15:37:42.253Z,97901.88
2024-02-10T15:40:21.817Z,97899.81
2024-02-10T15:42:50.272Z,97899.75
2024-02-10T15:45:16.994Z,97907.34
2024-02-10T15:47:43.793Z,97899.78
2024-02-10T15:50:10.707Z,97902.81
2024-02-10T15:52:37.346Z,97891.94
2024-02-10T15:55:04.790Z,97896.63
2024-02-10T15:57:31.640Z,97905.41
2024-02-10T15:59:58.149Z,97911.00
2024-02-10T16:02:27.061Z,97901.19
2024-02-10T16:04:54.248Z,97904.06
2024-02-10T16:07:22.258Z,97898.13
2024-02-10T16:09:49.415Z,97906.31
2024-02-10T16:12:17.953Z,97908.75
2024-02-10T16:14:44.784Z,97907.47
2024-02-10T16:17:15.380Z,97907.19
2024-02-10T16:19:46.275Z,97911.84
2024-02-10T16:22:13.152Z,97913.56
2024-02-10T16:24:41.391Z,97911.53
2024-02-10T16:27:07.989Z,97914.38
2024-02-10T16:29:34.518Z,97911.56
2024-02-10T16:32:01.882Z,97907.44
2024-02-10T16:34:30.533Z,97917.13
2024-02-10T16:36:59.556Z,97916.94
2024-02-10T16:39:26.913Z,97917.53
2024-02-10T16:41:53.915Z,97908.88
2024-02-10T16:44:20.602Z,97908.56
2024-02-10T16:46:48.286Z,97909.50
2024-02-10T16:49:16.052Z,97905.75
2024-02-10T16:51:42.872Z,97912.44
2024-02-10T16:54:11.024Z,97920.47
2024-02-10T16:56:40.089Z,97919.38
2024-02-10T16:59:08.555Z,97916.88
2024-02-10T17:01:35.405Z,97917.16
2024-02-10T17:04:05.060Z,97921.94
2024-02-10T17:06:35.486Z,97918.19
2024-02-10T17:09:03.910Z,97919.34
2024-02-10T17:11:30.561Z,97914.00
2024-02-10T17:13:57.610Z,97917.25
2024-02-10T17:16:24.164Z,97908.84
2024-02-10T17:18:50.785Z,97912.50
2024-02-10T17:21:20.022Z,97922.09
2024-02-10T17:23:47.066Z,97912.22
2024-02-10T17:26:14.503Z,97901.56
2024-02-10T17:28:42.010Z,97910.16
2024-02-10T17:31:12.508Z,97909.75
2024-02-10T17:33:42.651Z,97910.03
2024-02-10T17:36:10.915Z,97907.88
2024-02-10T17:38:39.106Z,97911.53
2024-02-10T17:41:13.135Z,97907.88
2024-02-10T17:43:40.807Z,97912.44
2024-02-10T17:46:07.872Z,97907.88
2024-02-10T17:48:35.740Z,97905.91
2024-02-10T17:51:02.662Z,97907.22
2024-02-10T17:53:30.362Z,97902.75
2024-02-10T17:56:00.964Z,97900.44
2024-02-10T17:58:32.617Z,97898.69
2024-02-10T18:01:00.440Z,97902.31
2024-02-10T18:03:30.485Z,97903.97
2024-02-10T18:06:00.562Z,97897.56
2024-02-10T18:08:30.440Z,97894.50
2024-02-10T18:10:57.290Z,97898.94
2024-02-10T18:13:24.187Z,97890.41
2024-02-10T18:15:51.440Z,97898.63
2024-02-10T18:18:21.495Z,97895.13
2024-02-10T18:20:48.391Z,97896.22
2024-02-10T18:23:15.313Z,97891.59
2024-02-10T18:25:43.731Z,97894.84
2024-02-10T18:28:12.409Z,97898.63
2024-02-10T18:30:39.932Z,97898.06
2024-02-10T18:33:06.773Z,97900.59
2024-02-10T18:35:33.404Z,97893.44
2024-02-10T18:38:00.635Z,97896.63
2024-02-10T18:40:28.459Z,97906.06
2024-02-10T18:42:55.629Z,97904.69
2024-02-10T18:45:25.242Z,97901.25
2024-02-10T18:47:52.665Z,97893.25
2024-02-10T18:50:20.782Z,97901.84
2024-02-10T18:52:50.396Z,97906.50
2024-02-10T18:55:20.280Z,97904.94
2024-02-10T18:57:47.661Z,97915.34
2024-02-10T19:00:20.591Z,97916.19
2024-02-10T19:02:50.736Z,97929.38
2024-02-10T19:05:19.065Z,97927.09
2024-02-10T19:07:46.795Z,97928.53
2024-02-10T19:10:15.455Z,97923.16
2024-02-10T19:12:49.381Z,97924.75
2024-02-10T19:15:18.697Z,97925.25
2024-02-10T19:17:47.542Z,97930.50
2024-02-10T19:20:20.405Z,97927.22
2024-02-10T19:22:49.520Z,97927.81
2024-02-10T19:25:17.811Z,97927.19
2024-02-10T19:27:48.936Z,97928.88
2024-02-10T19:30:15.747Z,97917.28
2024-02-10T19:32:46.470Z,97921.41
2024-02-10T19:35:17.437Z,97918.25
2024-02-10T19:37:46.915Z,97912.50
2024-02-10T19:40:15.712Z,97913.84
2024-02-10T19:42:44.654Z,97906.25
2024-02-10T19:45:14.061Z,97925.81
2024-02-10T19:47:47.623Z,97915.22
2024-02-10T19:50:15.521Z,97916.13
2024-02-10T19:52:43.431Z,97915.66
2024-02-10T19:55:10.617Z,97918.50
2024-02-10T19:57:41.921Z,97907.84
2024-02-10T20:00:13.368Z,97911.19
2024-02-10T20:02:42.512Z,97904.81
2024-02-10T20:05:09.859Z,97908.84
2024-02-10T20:07:36.683Z,97905.41
2024-02-10T20:10:03.504Z,97905.22
2024-02-10T20:12:30.103Z,97907.88
2024-02-10T20:14:57.784Z,97886.53
2024-02-10T20:17:30.801Z,97910.44
2024-02-10T20:20:02.549Z,97907.28
2024-02-10T20:22:29.230Z,97905.53
2024-02-10T20:24:56.282Z,97909.88
2024-02-10T20:27:22.841Z,97905.75
2024-02-10T20:29:49.375Z,97904.91
2024-02-10T20:32:21.501Z,97910.06
2024-02-10T20:34:48.103Z,97908.88
2024-02-10T20:37:15.596Z,97908.69
2024-02-10T20:39:43.400Z,97903.59
2024-02-10T20:42:13.662Z,97902.16
2024-02-10T20:44:41.120Z,97911.25
2024-02-10T20:47:08.045Z,97902.31
2024-02-10T20:49:36.231Z,97908.38
2024-02-10T20:52:03.584Z,97902.69
2024-02-10T20:54:30.042Z,97905.94
2024-02-10T20:56:57.235Z,97900.50
2024-02-10T20:59:25.343Z,97896.69
2024-02-10T21:01:55.356Z,97904.28
2024-02-10T21:04:23.169Z,97900.13
2024-02-10T21:06:51.532Z,97900.72
2024-02-10T21:09:18.123Z,97904.69
2024-02-10T21:11:44.749Z,97902.25
2024-02-10T21:14:14.026Z,97906.38
2024-02-10T21:16:45.909Z,97909.22
2024-02-10T21:19:12.619Z,97911.41
2024-02-10T21:21:40.118Z,97895.66
2024-02-10T21:24:08.774Z,97897.56
2024-02-10T21:26:36.237Z,97896.94
2024-02-10T21:29:06.330Z,97894.22
2024-02-10T21:31:36.585Z,97900.97
2024-02-10T21:34:11.639Z,97896.06
2024-02-10T21:36:38.508Z,97901.66
2024-02-10T21:39:10.228Z,97897.22
2024-02-10T21:41:37.556Z,97901.22
2024-02-10T21:44:04.948Z,97895.28
2024-02-10T21:46:36.277Z,97903.66
2024-02-10T21:49:03.113Z,97879.63
2024-02-10T21:51:30.846Z,97903.25
2024-02-10T21:53:57.461Z,97896.19
2024-02-10T21:56:23.972Z,97903.78
2024-02-10T21:58:52.164Z,97906.69
2024-02-10T22:01:21.682Z,97898.50
2024-02-10T22:03:51.155Z,97902.66
2024-02-10T22:06:17.992Z,97903.34
2024-02-10T22:08:44.535Z,97898.16
2024-02-10T22:11:11.775Z,97907.84
2024-02-10T22:13:39.120Z,97902.03
2024-02-10T22:16:05.926Z,97896.06
2024-02-10T22:18:32.536Z,97896.66
2024-02-10T22:21:03.517Z,97896.13
2024-02-10T22:23:34.439Z,97889.16
2024-02-10T22:26:01.390Z,97883.38
2024-02-10T22:30:59.477Z,97877.44
2024-02-10T22:33:26.285Z,97877.22
2024-02-10T22:35:53.657Z,97882.00
2024-02-10T22:38:22.278Z,97861.22
2024-02-10T22:40:48.875Z,97873.84
2024-02-10T22:43:17.409Z,97864.16
2024-02-10T22:45:46.491Z,97865.06
2024-02-10T22:48:13.504Z,97867.81
2024-02-10T22:50:43.525Z,97864.84
2024-02-10T22:53:15.145Z,97865.00
2024-02-10T22:55:44.849Z,97863.69
2024-02-10T22:58:13.000Z,97843.47
2024-02-10T23:00:47.280Z,97861.91
2024-02-10T23:03:15.667Z,97848.53
2024-02-10T23:05:42.860Z,97860.63
2024-02-10T23:08:13.864Z,97852.06
2024-02-10T23:10:43.517Z,97853.44
2024-02-10T23:13:16.644Z,97856.09
2024-02-10T23:15:44.303Z,97857.78
2024-02-10T23:18:12.207Z,97844.59
2024-02-10T23:20:48.107Z,97848.13
2024-02-10T23:23:16.691Z,97842.22
2024-02-10T23:25:44.736Z,97846.63
2024-02-10T23:28:16.380Z,97842.22
2024-02-10T23:30:51.517Z,97840.72
2024-02-10T23:33:30.624Z,97835.94
2024-02-10T23:35:57.437Z,97840.84
2024-02-10T23:38:27.858Z,97841.16
2024-02-10T23:40:54.696Z,97832.47
2024-02-10T23:43:23.624Z,97828.81
2024-02-10T23:45:50.343Z,97818.69
2024-02-10T23:48:25.427Z,97816.41
2024-02-10T23:50:52.265Z,97821.50
2024-02-10T23:53:18.840Z,97831.31
2024-02-10T23:55:47.252Z,97821.25
2024-02-10T23:58:14.006Z,97820.59
